Animas, NM

5:26 PM MDT on September 03, 2015 (GMT -0600)
Ramuda Drive | | Change Station
CLOSE
Current Station
Personal Weather Station
Location: Rodeo, NM
Elevation: 4131 ft
Nearby Weather Stations

Elev 4131 ft 31.87 °N, 109.01 °W | Updated 1 minute ago

Clear
Clear
73.8 °F
Feels Like 76 °F
N
21.0
Wind Variable Wind from South
Gusts 25.0 mph

Today
High -- | Low -- °F
--% Chance of Precip.
Yesterday
High -- | Low -- °F
Precip. -- in
6:51 AM 7:36 PM
Waning Gibbous, 66% visible
Pressure 29.90 in
Visibility 10.0 miles
Clouds Mostly Cloudy 11000 ft
Heat Index 76 °F
Dew Point 62 °F
Humidity 66%
Rainfall 0.00 in
Snow Depth Not available.
UV 2 out of 12
Pollen 5.30 out of 12
Air Quality Not available.
Flu Activity Not available.
METAR KDUG 032256Z AUTO 17013KT 10SM BKN110 22/15 A3007 RMK AO2 SLP125 T02220150
Pressure 29.90 in
Visibility 10.0 miles
Clouds Mostly Cloudy 11000 ft
Heat Index 76 °F
Dew Point 62 °F
Humidity 66%
Rainfall 0.00 in
Snow Depth Not available.
UV 2 out of 12
Pollen 5.30 out of 12
Air Quality Not available.
Flu Activity Not available.
METAR KDUG 032256Z AUTO 17013KT 10SM BKN110 22/15 A3007 RMK AO2 SLP125 T02220150

10-Day Weather Forecast

×

Almanac

Astronomy

Sep. 03, 2015 Rise Set
Actual Time
Civil Twilight
Nautical Twilight
Astronomical Twilight
Moon
Length of Visible Light
Length of Day
Tomorrow will be .
, % of the Moon is Illuminated

Today's Extremes

State Highs State Lows

Community

WunderPhotos

Upload Photos

1,852,060 photos uploaded!

WunderBlogs® & News

Nearby

Air Quality

  Air Quality AQ Index Pollutant
Not available.

Snow Depth

Station Depth Elevation

Earthquake Activity

City Distance Mag. Time & Date
Minimum magnitude displayed is 2.5.

Coastal Water Temperatures

Place Temperature

Stations

Nearby Weather Stations

Station Location Temp. Windchill Dew Point Humidity Wind Precip. Elev Updated Type